sensor_id;sensor_type;location;lat;lon;timestamp;temperature;humidity
66582;SHT31;53438;48.898;2.308;2023-02-11T00:00:23;8.37;78.24
66582;SHT31;53438;48.898;2.308;2023-02-11T00:02:48;8.36;78.44
66582;SHT31;53438;48.898;2.308;2023-02-11T00:05:14;8.40;78.51
66582;SHT31;53438;48.898;2.308;2023-02-11T00:07:40;8.33;78.88
66582;SHT31;53438;48.898;2.308;2023-02-11T00:10:05;8.35;78.83
66582;SHT31;53438;48.898;2.308;2023-02-11T00:12:35;8.35;78.78
66582;SHT31;53438;48.898;2.308;2023-02-11T00:15:01;8.32;78.66
66582;SHT31;53438;48.898;2.308;2023-02-11T00:17:26;8.28;78.93
66582;SHT31;53438;48.898;2.308;2023-02-11T00:19:52;8.29;78.95
66582;SHT31;53438;48.898;2.308;2023-02-11T00:22:17;8.24;79.15
66582;SHT31;53438;48.898;2.308;2023-02-11T00:24:43;8.28;79.11
66582;SHT31;53438;48.898;2.308;2023-02-11T00:27:08;8.29;79.07
66582;SHT31;53438;48.898;2.308;2023-02-11T00:29:34;8.25;79.04
66582;SHT31;53438;48.898;2.308;2023-02-11T00:32:00;8.26;79.10
66582;SHT31;53438;48.898;2.308;2023-02-11T00:34:30;8.21;78.80
66582;SHT31;53438;48.898;2.308;2023-02-11T00:36:55;8.22;79.02
66582;SHT31;53438;48.898;2.308;2023-02-11T00:39:20;8.19;78.97
66582;SHT31;53438;48.898;2.308;2023-02-11T00:41:46;8.22;78.85
66582;SHT31;53438;48.898;2.308;2023-02-11T00:44:11;8.25;79.10
66582;SHT31;53438;48.898;2.308;2023-02-11T00:46:36;8.13;79.05
66582;SHT31;53438;48.898;2.308;2023-02-11T00:49:02;8.19;79.12
66582;SHT31;53438;48.898;2.308;2023-02-11T00:51:27;8.21;78.85
66582;SHT31;53438;48.898;2.308;2023-02-11T00:53:53;8.12;78.76
66582;SHT31;53438;48.898;2.308;2023-02-11T00:56:19;8.12;78.64
66582;SHT31;53438;48.898;2.308;2023-02-11T00:58:44;8.09;78.54
66582;SHT31;53438;48.898;2.308;2023-02-11T04:00:11;6.71;83.11
66582;SHT31;53438;48.898;2.308;2023-02-11T04:02:37;6.85;82.86
66582;SHT31;53438;48.898;2.308;2023-02-11T04:05:05;6.79;82.84
66582;SHT31;53438;48.898;2.308;2023-02-11T04:07:31;6.79;82.52
66582;SHT31;53438;48.898;2.308;2023-02-11T04:09:57;6.79;82.70
66582;SHT31;53438;48.898;2.308;2023-02-11T04:12:22;6.85;82.21
66582;SHT31;53438;48.898;2.308;2023-02-11T04:14:48;6.88;82.20
66582;SHT31;53438;48.898;2.308;2023-02-11T04:17:13;6.84;82.49
66582;SHT31;53438;48.898;2.308;2023-02-11T04:19:38;6.89;82.28
66582;SHT31;53438;48.898;2.308;2023-02-11T04:22:04;6.84;82.37
66582;SHT31;53438;48.898;2.308;2023-02-11T04:24:30;6.71;82.69
66582;SHT31;53438;48.898;2.308;2023-02-11T04:26:55;6.71;82.82
66582;SHT31;53438;48.898;2.308;2023-02-11T04:29:21;6.75;82.92
66582;SHT31;53438;48.898;2.308;2023-02-11T04:31:47;6.72;82.97
66582;SHT31;53438;48.898;2.308;2023-02-11T04:34:13;6.85;82.55
66582;SHT31;53438;48.898;2.308;2023-02-11T04:36:38;6.92;82.13
66582;SHT31;53438;48.898;2.308;2023-02-11T04:39:04;6.74;82.59
66582;SHT31;53438;48.898;2.308;2023-02-11T04:41:29;6.47;83.47
66582;SHT31;53438;48.898;2.308;2023-02-11T04:43:54;6.33;84.02
66582;SHT31;53438;48.898;2.308;2023-02-11T04:46:20;6.44;83.95
66582;SHT31;53438;48.898;2.308;2023-02-11T04:48:45;6.55;83.48
66582;SHT31;53438;48.898;2.308;2023-02-11T04:51:10;6.59;83.21
66582;SHT31;53438;48.898;2.308;2023-02-11T04:53:36;6.67;83.03
66582;SHT31;53438;48.898;2.308;2023-02-11T04:56:01;6.58;83.27
66582;SHT31;53438;48.898;2.308;2023-02-11T04:58:27;6.67;82.93
66582;SHT31;53438;48.898;2.308;2023-02-11T05:00:52;6.78;82.50
66582;SHT31;53438;48.898;2.308;2023-02-11T05:03:17;6.82;82.27
66582;SHT31;53438;48.898;2.308;2023-02-11T05:05:43;6.82;82.11
66582;SHT31;53438;48.898;2.308;2023-02-11T05:08:09;6.34;83.55
66582;SHT31;53438;48.898;2.308;2023-02-11T05:10:35;6.23;84.35
66582;SHT31;53438;48.898;2.308;2023-02-11T05:13:01;6.41;83.88
66582;SHT31;53438;48.898;2.308;2023-02-11T05:15:26;6.49;83.38
66582;SHT31;53438;48.898;2.308;2023-02-11T05:17:53;6.59;82.96
66582;SHT31;53438;48.898;2.308;2023-02-11T05:20:18;6.65;82.76
66582;SHT31;53438;48.898;2.308;2023-02-11T05:22:44;6.68;82.54
66582;SHT31;53438;48.898;2.308;2023-02-11T05:25:09;6.59;82.70
66582;SHT31;53438;48.898;2.308;2023-02-11T05:27:35;6.64;82.45
66582;SHT31;53438;48.898;2.308;2023-02-11T05:30:00;6.61;82.71
66582;SHT31;53438;48.898;2.308;2023-02-11T05:32:25;6.67;82.55
66582;SHT31;53438;48.898;2.308;2023-02-11T05:34:51;6.72;82.36
66582;SHT31;53438;48.898;2.308;2023-02-11T05:37:16;6.75;82.07
66582;SHT31;53438;48.898;2.308;2023-02-11T05:39:42;6.57;82.51
66582;SHT31;53438;48.898;2.308;2023-02-11T05:42:07;6.57;82.57
66582;SHT31;53438;48.898;2.308;2023-02-11T05:44:32;6.51;82.83
66582;SHT31;53438;48.898;2.308;2023-02-11T05:46:58;6.37;83.26
66582;SHT31;53438;48.898;2.308;2023-02-11T05:49:23;6.38;83.45
66582;SHT31;53438;48.898;2.308;2023-02-11T05:51:48;6.38;83.37
66582;SHT31;53438;48.898;2.308;2023-02-11T05:54:14;6.37;83.19
66582;SHT31;53438;48.898;2.308;2023-02-11T05:56:39;6.45;82.94
66582;SHT31;53438;48.898;2.308;2023-02-11T05:59:05;6.26;83.37
66582;SHT31;53438;48.898;2.308;2023-02-11T06:01:30;6.07;84.15
66582;SHT31;53438;48.898;2.308;2023-02-11T06:03:55;6.07;84.36
66582;SHT31;53438;48.898;2.308;2023-02-11T06:06:21;6.09;84.16
66582;SHT31;53438;48.898;2.308;2023-02-11T06:08:46;6.02;84.14
66582;SHT31;53438;48.898;2.308;2023-02-11T06:11:14;6.10;84.19
66582;SHT31;53438;48.898;2.308;2023-02-11T06:13:39;6.21;83.81
66582;SHT31;53438;48.898;2.308;2023-02-11T06:16:05;6.36;83.48
66582;SHT31;53438;48.898;2.308;2023-02-11T06:18:30;6.18;83.71
66582;SHT31;53438;48.898;2.308;2023-02-11T06:20:58;6.27;83.86
66582;SHT31;53438;48.898;2.308;2023-02-11T06:23:23;6.10;83.94
66582;SHT31;53438;48.898;2.308;2023-02-11T06:25:49;6.26;83.48
66582;SHT31;53438;48.898;2.308;2023-02-11T06:28:14;6.20;83.53
66582;SHT31;53438;48.898;2.308;2023-02-11T06:30:39;6.14;83.84
66582;SHT31;53438;48.898;2.308;2023-02-11T06:33:05;6.11;83.57
66582;SHT31;53438;48.898;2.308;2023-02-11T06:35:31;6.07;83.94
66582;SHT31;53438;48.898;2.308;2023-02-11T06:37:57;6.07;84.07
66582;SHT31;53438;48.898;2.308;2023-02-11T06:40:23;6.14;83.77
66582;SHT31;53438;48.898;2.308;2023-02-11T06:42:48;6.27;83.40
66582;SHT31;53438;48.898;2.308;2023-02-11T06:45:14;6.18;83.46
66582;SHT31;53438;48.898;2.308;2023-02-11T06:47:40;6.20;83.36
66582;SHT31;53438;48.898;2.308;2023-02-11T06:50:07;6.05;83.73
66582;SHT31;53438;48.898;2.308;2023-02-11T06:52:33;6.10;83.78
66582;SHT31;53438;48.898;2.308;2023-02-11T06:54:58;6.07;83.93
66582;SHT31;53438;48.898;2.308;2023-02-11T06:57:24;5.97;84.07
66582;SHT31;53438;48.898;2.308;2023-02-11T06:59:49;5.96;83.99
66582;SHT31;53438;48.898;2.308;2023-02-11T07:02:15;6.02;83.74
66582;SHT31;53438;48.898;2.308;2023-02-11T07:04:40;6.05;83.56
66582;SHT31;53438;48.898;2.308;2023-02-11T07:07:06;5.86;84.31
66582;SHT31;53438;48.898;2.308;2023-02-11T07:09:31;6.03;83.85
66582;SHT31;53438;48.898;2.308;2023-02-11T07:11:57;6.02;83.56
66582;SHT31;53438;48.898;2.308;2023-02-11T07:14:22;6.17;83.45
66582;SHT31;53438;48.898;2.308;2023-02-11T07:16:47;6.21;83.07
66582;SHT31;53438;48.898;2.308;2023-02-11T07:19:13;6.20;82.96
66582;SHT31;53438;48.898;2.308;2023-02-11T07:21:38;6.23;82.85
66582;SHT31;53438;48.898;2.308;2023-02-11T07:24:07;6.20;83.10
66582;SHT31;53438;48.898;2.308;2023-02-11T07:26:33;6.18;82.94
66582;SHT31;53438;48.898;2.308;2023-02-11T07:28:58;5.95;83.89
66582;SHT31;53438;48.898;2.308;2023-02-11T07:31:26;6.00;83.69
66582;SHT31;53438;48.898;2.308;2023-02-11T07:33:53;5.82;84.32
66582;SHT31;53438;48.898;2.308;2023-02-11T07:36:20;5.85;84.09
66582;SHT31;53438;48.898;2.308;2023-02-11T07:38:45;6.02;83.85
66582;SHT31;53438;48.898;2.308;2023-02-11T07:41:13;6.09;83.62
66582;SHT31;53438;48.898;2.308;2023-02-11T07:43:39;6.02;83.60
66582;SHT31;53438;48.898;2.308;2023-02-11T07:46:07;5.93;84.00
66582;SHT31;53438;48.898;2.308;2023-02-11T07:48:33;5.93;84.50
66582;SHT31;53438;48.898;2.308;2023-02-11T07:51:14;6.03;83.88
66582;SHT31;53438;48.898;2.308;2023-02-11T07:53:40;6.18;83.69
66582;SHT31;53438;48.898;2.308;2023-02-11T07:56:06;6.17;83.49
66582;SHT31;53438;48.898;2.308;2023-02-11T07:58:32;6.28;83.35
66582;SHT31;53438;48.898;2.308;2023-02-11T08:01:05;6.37;83.10
66582;SHT31;53438;48.898;2.308;2023-02-11T08:03:31;6.31;82.64
66582;SHT31;53438;48.898;2.308;2023-02-11T08:05:57;6.31;82.66
66582;SHT31;53438;48.898;2.308;2023-02-11T08:08:25;6.30;82.54
66582;SHT31;53438;48.898;2.308;2023-02-11T08:10:51;6.44;82.43
66582;SHT31;53438;48.898;2.308;2023-02-11T08:13:17;6.45;82.16
66582;SHT31;53438;48.898;2.308;2023-02-11T08:15:42;6.48;82.04
66582;SHT31;53438;48.898;2.308;2023-02-11T08:18:08;6.58;82.00
66582;SHT31;53438;48.898;2.308;2023-02-11T08:20:33;6.42;82.10
66582;SHT31;53438;48.898;2.308;2023-02-11T08:22:58;6.40;82.52
66582;SHT31;53438;48.898;2.308;2023-02-11T08:25:24;6.28;82.95
66582;SHT31;53438;48.898;2.308;2023-02-11T08:27:49;6.41;82.86
66582;SHT31;53438;48.898;2.308;2023-02-11T08:30:14;6.49;82.59
66582;SHT31;53438;48.898;2.308;2023-02-11T08:32:40;6.28;83.20
66582;SHT31;53438;48.898;2.308;2023-02-11T08:35:05;6.37;83.02
66582;SHT31;53438;48.898;2.308;2023-02-11T08:37:36;6.45;82.88
66582;SHT31;53438;48.898;2.308;2023-02-11T08:40:02;6.41;82.72
66582;SHT31;53438;48.898;2.308;2023-02-11T08:42:28;6.30;83.11
66582;SHT31;53438;48.898;2.308;2023-02-11T08:44:53;6.45;82.83
66582;SHT31;53438;48.898;2.308;2023-02-11T08:47:18;6.47;82.67
66582;SHT31;53438;48.898;2.308;2023-02-11T08:49:45;6.54;82.46
66582;SHT31;53438;48.898;2.308;2023-02-11T08:52:10;6.58;82.29
66582;SHT31;53438;48.898;2.308;2023-02-11T08:54:36;6.69;82.06
66582;SHT31;53438;48.898;2.308;2023-02-11T08:57:02;6.52;82.43
66582;SHT31;53438;48.898;2.308;2023-02-11T08:59:27;6.59;82.29
66582;SHT31;53438;48.898;2.308;2023-02-11T09:01:53;6.68;81.94
66582;SHT31;53438;48.898;2.308;2023-02-11T09:04:18;6.79;81.66
66582;SHT31;53438;48.898;2.308;2023-02-11T09:06:44;6.86;81.38
66582;SHT31;53438;48.898;2.308;2023-02-11T09:09:12;6.93;81.11
66582;SHT31;53438;48.898;2.308;2023-02-11T09:11:38;6.89;81.13
66582;SHT31;53438;48.898;2.308;2023-02-11T09:14:05;6.96;81.05
66582;SHT31;53438;48.898;2.308;2023-02-11T09:16:33;6.95;80.84
66582;SHT31;53438;48.898;2.308;2023-02-11T09:19:00;7.05;80.77
66582;SHT31;53438;48.898;2.308;2023-02-11T09:21:26;7.10;80.61
66582;SHT31;53438;48.898;2.308;2023-02-11T09:23:52;7.17;80.53
66582;SHT31;53438;48.898;2.308;2023-02-11T09:26:20;7.16;80.42
66582;SHT31;53438;48.898;2.308;2023-02-11T09:28:47;7.16;80.27
66582;SHT31;53438;48.898;2.308;2023-02-11T09:31:15;7.22;80.31
66582;SHT31;53438;48.898;2.308;2023-02-11T09:33:42;7.20;80.19
66582;SHT31;53438;48.898;2.308;2023-02-11T09:36:13;7.20;80.21
66582;SHT31;53438;48.898;2.308;2023-02-11T09:38:39;7.27;80.15
66582;SHT31;53438;48.898;2.308;2023-02-11T09:41:04;7.30;79.97
66582;SHT31;53438;48.898;2.308;2023-02-11T09:43:41;7.28;80.10
66582;SHT31;53438;48.898;2.308;2023-02-11T09:46:14;7.38;79.98
66582;SHT31;53438;48.898;2.308;2023-02-11T09:48:42;7.38;80.02
66582;SHT31;53438;48.898;2.308;2023-02-11T09:51:43;7.47;79.83
66582;SHT31;53438;48.898;2.308;2023-02-11T09:54:20;7.44;79.91
66582;SHT31;53438;48.898;2.308;2023-02-11T09:56:47;7.53;80.00
66582;SHT31;53438;48.898;2.308;2023-02-11T09:59:14;7.58;79.78
66582;SHT31;53438;48.898;2.308;2023-02-11T10:01:47;7.58;79.62
66582;SHT31;53438;48.898;2.308;2023-02-11T10:04:38;7.63;79.16
66582;SHT31;53438;48.898;2.308;2023-02-11T10:23:28;7.56;79.47
66582;SHT31;53438;48.898;2.308;2023-02-11T10:25:55;7.75;78.97
66582;SHT31;53438;48.898;2.308;2023-02-11T10:28:35;7.85;78.87
66582;SHT31;53438;48.898;2.308;2023-02-11T10:31:04;7.98;78.62
66582;SHT31;53438;48.898;2.308;2023-02-11T10:36:08;8.03;78.86
66582;SHT31;53438;48.898;2.308;2023-02-11T10:38:35;7.96;79.49
66582;SHT31;53438;48.898;2.308;2023-02-11T10:41:01;7.98;79.88
66582;SHT31;53438;48.898;2.308;2023-02-11T10:43:27;7.82;80.63
66582;SHT31;53438;48.898;2.308;2023-02-11T10:45:55;7.94;79.95
66582;SHT31;53438;48.898;2.308;2023-02-11T10:48:42;8.12;80.05
66582;SHT31;53438;48.898;2.308;2023-02-11T10:53:45;8.32;79.21
66582;SHT31;53438;48.898;2.308;2023-02-11T10:56:20;8.39;79.60
66582;SHT31;53438;48.898;2.308;2023-02-11T11:01:59;8.42;80.08
66582;SHT31;53438;48.898;2.308;2023-02-11T11:06:55;8.18;80.63
66582;SHT31;53438;48.898;2.308;2023-02-11T11:09:28;8.25;80.76
66582;SHT31;53438;48.898;2.308;2023-02-11T11:11:56;8.36;80.93
66582;SHT31;53438;48.898;2.308;2023-02-11T11:14:23;8.25;80.66
66582;SHT31;53438;48.898;2.308;2023-02-11T11:16:53;8.15;81.64
66582;SHT31;53438;48.898;2.308;2023-02-11T11:19:23;8.24;81.88
66582;SHT31;53438;48.898;2.308;2023-02-11T11:21:53;8.19;81.48
66582;SHT31;53438;48.898;2.308;2023-02-11T11:24:32;8.21;81.60
66582;SHT31;53438;48.898;2.308;2023-02-11T11:27:04;8.21;81.71
66582;SHT31;53438;48.898;2.308;2023-02-11T11:29:47;8.32;81.26
66582;SHT31;53438;48.898;2.308;2023-02-11T11:32:24;8.29;81.53
66582;SHT31;53438;48.898;2.308;2023-02-11T11:34:53;8.36;81.39
66582;SHT31;53438;48.898;2.308;2023-02-11T11:37:25;8.36;81.40
66582;SHT31;53438;48.898;2.308;2023-02-11T11:39:56;8.47;81.15
66582;SHT31;53438;48.898;2.308;2023-02-11T11:42:33;8.46;81.14
66582;SHT31;53438;48.898;2.308;2023-02-11T11:47:36;8.60;80.77
66582;SHT31;53438;48.898;2.308;2023-02-11T11:53:00;8.76;80.21
66582;SHT31;53438;48.898;2.308;2023-02-11T11:57:59;8.83;80.10
66582;SHT31;53438;48.898;2.308;2023-02-11T12:09:03;8.88;80.03
66582;SHT31;53438;48.898;2.308;2023-02-11T12:14:57;8.95;79.50
66582;SHT31;53438;48.898;2.308;2023-02-11T12:23:08;9.10;78.96
66582;SHT31;53438;48.898;2.308;2023-02-11T12:25:50;9.11;78.90
66582;SHT31;53438;48.898;2.308;2023-02-11T12:33:29;9.17;78.46
66582;SHT31;53438;48.898;2.308;2023-02-11T12:36:31;9.17;78.37
66582;SHT31;53438;48.898;2.308;2023-02-11T12:42:29;9.19;78.27
66582;SHT31;53438;48.898;2.308;2023-02-11T12:50:52;9.32;78.08
66582;SHT31;53438;48.898;2.308;2023-02-11T12:58:54;9.35;77.16
66582;SHT31;53438;48.898;2.308;2023-02-11T13:01:25;9.35;77.09
66582;SHT31;53438;48.898;2.308;2023-02-11T13:04:03;9.38;76.78
66582;SHT31;53438;48.898;2.308;2023-02-11T13:06:45;9.40;76.87
66582;SHT31;53438;48.898;2.308;2023-02-11T13:09:18;9.53;76.31
66582;SHT31;53438;48.898;2.308;2023-02-11T13:11:48;9.53;76.37
66582;SHT31;53438;48.898;2.308;2023-02-11T13:14:32;9.63;76.30
66582;SHT31;53438;48.898;2.308;2023-02-11T13:17:00;9.57;76.28
66582;SHT31;53438;48.898;2.308;2023-02-11T13:19:38;9.70;75.75
66582;SHT31;53438;48.898;2.308;2023-02-11T13:22:30;9.82;75.75
66582;SHT31;53438;48.898;2.308;2023-02-11T13:25:16;9.70;75.79
66582;SHT31;53438;48.898;2.308;2023-02-11T13:27:53;9.69;75.83
66582;SHT31;53438;48.898;2.308;2023-02-11T13:30:30;9.76;75.55
66582;SHT31;53438;48.898;2.308;2023-02-11T13:35:37;9.76;75.73
66582;SHT31;53438;48.898;2.308;2023-02-11T13:38:21;9.91;75.17
66582;SHT31;53438;48.898;2.308;2023-02-11T13:41:09;9.79;75.20
66582;SHT31;53438;48.898;2.308;2023-02-11T13:43:39;9.76;75.41
66582;SHT31;53438;48.898;2.308;2023-02-11T13:46:06;9.75;75.49
66582;SHT31;53438;48.898;2.308;2023-02-11T13:51:04;9.83;75.30
66582;SHT31;53438;48.898;2.308;2023-02-11T13:53:48;9.75;75.81
66582;SHT31;53438;48.898;2.308;2023-02-11T13:56:28;9.75;75.75
66582;SHT31;53438;48.898;2.308;2023-02-11T13:58:55;9.73;75.86
66582;SHT31;53438;48.898;2.308;2023-02-11T14:01:40;9.70;75.94
66582;SHT31;53438;48.898;2.308;2023-02-11T14:04:33;9.70;76.21
66582;SHT31;53438;48.898;2.308;2023-02-11T14:07:31;9.76;76.07
66582;SHT31;53438;48.898;2.308;2023-02-11T14:13:26;9.79;76.01
66582;SHT31;53438;48.898;2.308;2023-02-11T14:21:28;9.86;75.79
66582;SHT31;53438;48.898;2.308;2023-02-11T14:29:35;9.94;75.49
66582;SHT31;53438;48.898;2.308;2023-02-11T14:32:20;9.90;75.61
66582;SHT31;53438;48.898;2.308;2023-02-11T14:42:45;10.01;75.26
66582;SHT31;53438;48.898;2.308;2023-02-11T14:45:17;9.96;75.41
66582;SHT31;53438;48.898;2.308;2023-02-11T14:47:49;10.04;75.23
66582;SHT31;53438;48.898;2.308;2023-02-11T14:50:31;10.27;74.26
66582;SHT31;53438;48.898;2.308;2023-02-11T14:52:59;10.11;74.53
66582;SHT31;53438;48.898;2.308;2023-02-11T14:55:38;10.04;74.93
66582;SHT31;53438;48.898;2.308;2023-02-11T14:58:13;9.97;75.13
66582;SHT31;53438;48.898;2.308;2023-02-11T15:00:52;10.00;74.86
66582;SHT31;53438;48.898;2.308;2023-02-11T15:03:29;9.96;75.17
66582;SHT31;53438;48.898;2.308;2023-02-11T15:05:57;9.91;75.36
66582;SHT31;53438;48.898;2.308;2023-02-11T15:08:24;9.97;75.32
66582;SHT31;53438;48.898;2.308;2023-02-11T15:10:52;9.96;75.43
66582;SHT31;53438;48.898;2.308;2023-02-11T15:13:20;9.97;75.52
66582;SHT31;53438;48.898;2.308;2023-02-11T15:15:53;9.89;75.72
66582;SHT31;53438;48.898;2.308;2023-02-11T15:18:21;9.90;75.94
66582;SHT31;53438;48.898;2.308;2023-02-11T15:20:49;9.94;75.74
66582;SHT31;53438;48.898;2.308;2023-02-11T15:23:22;9.93;75.86
66582;SHT31;53438;48.898;2.308;2023-02-11T15:25:48;10.04;75.72
66582;SHT31;53438;48.898;2.308;2023-02-11T15:28:29;9.98;75.81
66582;SHT31;53438;48.898;2.308;2023-02-11T15:31:12;9.96;76.06
66582;SHT31;53438;48.898;2.308;2023-02-11T15:33:38;9.90;76.16
66582;SHT31;53438;48.898;2.308;2023-02-11T15:36:04;10.10;75.84
66582;SHT31;53438;48.898;2.308;2023-02-11T15:38:30;10.00;75.92
66582;SHT31;53438;48.898;2.308;2023-02-11T15:40:57;9.97;76.04
66582;SHT31;53438;48.898;2.308;2023-02-11T15:43:42;9.97;76.19
66582;SHT31;53438;48.898;2.308;2023-02-11T15:46:10;10.04;76.04
66582;SHT31;53438;48.898;2.308;2023-02-11T15:48:41;9.96;76.14
66582;SHT31;53438;48.898;2.308;2023-02-11T15:51:18;9.93;76.32
66582;SHT31;53438;48.898;2.308;2023-02-11T15:53:48;10.06;76.31
66582;SHT31;53438;48.898;2.308;2023-02-11T15:58:47;10.07;76.24
66582;SHT31;53438;48.898;2.308;2023-02-11T16:01:14;10.06;76.35
66582;SHT31;53438;48.898;2.308;2023-02-11T16:03:41;9.97;76.76
66582;SHT31;53438;48.898;2.308;2023-02-11T16:09:02;9.97;77.00
66582;SHT31;53438;48.898;2.308;2023-02-11T16:16:53;10.03;76.75
66582;SHT31;53438;48.898;2.308;2023-02-11T16:19:21;10.01;76.74
66582;SHT31;53438;48.898;2.308;2023-02-11T16:21:47;10.01;76.90
66582;SHT31;53438;48.898;2.308;2023-02-11T16:24:23;9.97;77.05
66582;SHT31;53438;48.898;2.308;2023-02-11T16:26:54;9.94;77.15
66582;SHT31;53438;48.898;2.308;2023-02-11T16:29:25;9.94;77.10
66582;SHT31;53438;48.898;2.308;2023-02-11T16:31:53;10.00;76.71
66582;SHT31;53438;48.898;2.308;2023-02-11T16:34:28;9.91;76.80
66582;SHT31;53438;48.898;2.308;2023-02-11T16:36:53;10.00;76.75
66582;SHT31;53438;48.898;2.308;2023-02-11T16:39:21;9.90;76.75
66582;SHT31;53438;48.898;2.308;2023-02-11T16:41:47;9.93;76.45
66582;SHT31;53438;48.898;2.308;2023-02-11T16:44:15;9.98;76.16
66582;SHT31;53438;48.898;2.308;2023-02-11T16:46:40;9.90;76.51
66582;SHT31;53438;48.898;2.308;2023-02-11T16:49:16;9.83;76.81
66582;SHT31;53438;48.898;2.308;2023-02-11T16:51:46;9.82;76.93
66582;SHT31;53438;48.898;2.308;2023-02-11T16:54:13;9.83;76.78
66582;SHT31;53438;48.898;2.308;2023-02-11T16:56:39;9.82;76.97
66582;SHT31;53438;48.898;2.308;2023-02-11T16:59:05;9.82;76.84
66582;SHT31;53438;48.898;2.308;2023-02-11T17:01:31;9.90;76.75
66582;SHT31;53438;48.898;2.308;2023-02-11T17:03:57;9.86;76.83
66582;SHT31;53438;48.898;2.308;2023-02-11T17:06:22;9.83;77.05
66582;SHT31;53438;48.898;2.308;2023-02-11T17:08:48;9.82;76.89
66582;SHT31;53438;48.898;2.308;2023-02-11T17:11:13;9.91;76.79
66582;SHT31;53438;48.898;2.308;2023-02-11T17:13:41;9.97;76.68
66582;SHT31;53438;48.898;2.308;2023-02-11T17:16:27;9.83;76.95
66582;SHT31;53438;48.898;2.308;2023-02-11T17:18:53;9.80;77.23
66582;SHT31;53438;48.898;2.308;2023-02-11T17:21:20;9.77;77.25
66582;SHT31;53438;48.898;2.308;2023-02-11T17:23:49;9.80;77.38
66582;SHT31;53438;48.898;2.308;2023-02-11T17:26:15;9.77;77.49
66582;SHT31;53438;48.898;2.308;2023-02-11T17:28:40;9.97;77.01
66582;SHT31;53438;48.898;2.308;2023-02-11T17:31:06;9.91;77.08
66582;SHT31;53438;48.898;2.308;2023-02-11T17:33:32;9.87;77.24
66582;SHT31;53438;48.898;2.308;2023-02-11T17:35:58;9.86;77.31
66582;SHT31;53438;48.898;2.308;2023-02-11T17:38:23;9.83;77.39
66582;SHT31;53438;48.898;2.308;2023-02-11T17:40:59;9.77;77.38
66582;SHT31;53438;48.898;2.308;2023-02-11T17:43:25;9.76;77.46
66582;SHT31;53438;48.898;2.308;2023-02-11T17:45:50;9.83;77.78
66582;SHT31;53438;48.898;2.308;2023-02-11T17:48:16;9.76;79.56
66582;SHT31;53438;48.898;2.308;2023-02-11T17:50:41;9.77;79.89
66582;SHT31;53438;48.898;2.308;2023-02-11T17:53:07;9.85;80.10
66582;SHT31;53438;48.898;2.308;2023-02-11T17:55:33;9.82;80.25
66582;SHT31;53438;48.898;2.308;2023-02-11T17:58:01;9.80;80.17
66582;SHT31;53438;48.898;2.308;2023-02-11T18:00:26;9.77;80.33
66582;SHT31;53438;48.898;2.308;2023-02-11T18:02:55;9.89;80.21
66582;SHT31;53438;48.898;2.308;2023-02-11T18:05:22;9.76;80.21
66582;SHT31;53438;48.898;2.308;2023-02-11T18:07:48;9.77;80.21
66582;SHT31;53438;48.898;2.308;2023-02-11T18:10:13;9.76;80.52
66582;SHT31;53438;48.898;2.308;2023-02-11T18:12:40;9.75;80.73
66582;SHT31;53438;48.898;2.308;2023-02-11T18:15:05;9.85;80.89
66582;SHT31;53438;48.898;2.308;2023-02-11T18:17:31;9.79;81.39
66582;SHT31;53438;48.898;2.308;2023-02-11T18:19:57;9.73;81.51
66582;SHT31;53438;48.898;2.308;2023-02-11T18:22:23;9.75;81.42
66582;SHT31;53438;48.898;2.308;2023-02-11T18:24:53;9.69;81.62
66582;SHT31;53438;48.898;2.308;2023-02-11T18:27:20;9.63;82.02
66582;SHT31;53438;48.898;2.308;2023-02-11T18:29:45;9.65;81.95
66582;SHT31;53438;48.898;2.308;2023-02-11T18:32:11;9.70;81.64
66582;SHT31;53438;48.898;2.308;2023-02-11T18:34:39;9.62;81.96
66582;SHT31;53438;48.898;2.308;2023-02-11T18:37:04;9.60;82.08
66582;SHT31;53438;48.898;2.308;2023-02-11T18:39:29;9.65;81.96
66582;SHT31;53438;48.898;2.308;2023-02-11T18:41:55;9.67;81.70
66582;SHT31;53438;48.898;2.308;2023-02-11T18:44:23;9.75;81.56
66582;SHT31;53438;48.898;2.308;2023-02-11T18:46:49;9.62;81.72
66582;SHT31;53438;48.898;2.308;2023-02-11T18:49:15;9.63;81.69
66582;SHT31;53438;48.898;2.308;2023-02-11T18:51:40;9.62;81.68
66582;SHT31;53438;48.898;2.308;2023-02-11T18:54:05;9.70;81.07
66582;SHT31;53438;48.898;2.308;2023-02-11T18:56:31;9.69;81.20
66582;SHT31;53438;48.898;2.308;2023-02-11T18:58:57;9.69;81.17
66582;SHT31;53438;48.898;2.308;2023-02-11T19:01:25;9.66;81.08
66582;SHT31;53438;48.898;2.308;2023-02-11T19:03:51;9.62;80.85
66582;SHT31;53438;48.898;2.308;2023-02-11T19:06:20;9.60;80.91
66582;SHT31;53438;48.898;2.308;2023-02-11T19:08:46;9.69;80.64
66582;SHT31;53438;48.898;2.308;2023-02-11T19:11:12;9.76;80.58
66582;SHT31;53438;48.898;2.308;2023-02-11T19:13:40;9.72;80.19
66582;SHT31;53438;48.898;2.308;2023-02-11T19:16:06;9.67;80.39
66582;SHT31;53438;48.898;2.308;2023-02-11T19:18:33;9.63;80.56
66582;SHT31;53438;48.898;2.308;2023-02-11T19:20:59;9.57;80.81
66582;SHT31;53438;48.898;2.308;2023-02-11T19:23:24;9.66;80.69
66582;SHT31;53438;48.898;2.308;2023-02-11T19:25:49;9.60;80.89
66582;SHT31;53438;48.898;2.308;2023-02-11T19:28:15;9.59;81.12
66582;SHT31;53438;48.898;2.308;2023-02-11T19:30:41;9.67;80.44
66582;SHT31;53438;48.898;2.308;2023-02-11T19:33:06;9.72;80.48
66582;SHT31;53438;48.898;2.308;2023-02-11T19:35:33;9.57;80.66
66582;SHT31;53438;48.898;2.308;2023-02-11T19:38:03;9.66;80.57
66582;SHT31;53438;48.898;2.308;2023-02-11T19:40:29;9.63;80.50
66582;SHT31;53438;48.898;2.308;2023-02-11T19:42:55;9.60;80.59
66582;SHT31;53438;48.898;2.308;2023-02-11T19:45:21;9.56;80.75
66582;SHT31;53438;48.898;2.308;2023-02-11T19:47:46;9.60;80.91
66582;SHT31;53438;48.898;2.308;2023-02-11T19:50:11;9.67;80.87
66582;SHT31;53438;48.898;2.308;2023-02-11T19:52:37;9.55;81.12
66582;SHT31;53438;48.898;2.308;2023-02-11T19:55:03;9.53;81.24
66582;SHT31;53438;48.898;2.308;2023-02-11T19:57:29;9.50;81.61
66582;SHT31;53438;48.898;2.308;2023-02-11T19:59:55;9.47;82.21
66582;SHT31;53438;48.898;2.308;2023-02-11T20:02:21;9.52;82.45
66582;SHT31;53438;48.898;2.308;2023-02-11T20:04:47;9.49;83.04
66582;SHT31;53438;48.898;2.308;2023-02-11T20:07:13;9.46;83.26
66582;SHT31;53438;48.898;2.308;2023-02-11T20:09:38;9.43;83.76
66582;SHT31;53438;48.898;2.308;2023-02-11T20:12:05;9.49;83.34
66582;SHT31;53438;48.898;2.308;2023-02-11T20:14:31;9.47;83.41
66582;SHT31;53438;48.898;2.308;2023-02-11T20:16:56;9.45;83.59
66582;SHT31;53438;48.898;2.308;2023-02-11T20:19:21;9.65;83.15
66582;SHT31;53438;48.898;2.308;2023-02-11T20:21:49;9.55;83.32
66582;SHT31;53438;48.898;2.308;2023-02-11T20:24:16;9.53;83.38
66582;SHT31;53438;48.898;2.308;2023-02-11T20:26:42;9.47;83.56
66582;SHT31;53438;48.898;2.308;2023-02-11T20:29:09;9.39;83.67
66582;SHT31;53438;48.898;2.308;2023-02-11T20:31:35;9.43;83.50
66582;SHT31;53438;48.898;2.308;2023-02-11T20:34:01;9.39;83.62
66582;SHT31;53438;48.898;2.308;2023-02-11T20:36:29;9.36;83.60
66582;SHT31;53438;48.898;2.308;2023-02-11T20:39:00;9.47;83.29
66582;SHT31;53438;48.898;2.308;2023-02-11T20:41:29;9.55;82.86